Time;durP1;ratioP1;P1;durP2;ratioP2;P2;SDS_P1;SDS_P2;PMS_P1;PMS_P2;Temp;Humidity;BMP_temperature;BMP_pressure;BME280_temperature;BME280_humidity;BME280_pressure;Samples;Min_cycle;Max_cycle;Signal;HPM_P1;HPM_P2
2022/11/10 00:01:04;;;;;;;6.23;2.43;;;11.90;99.90;;;;;;5082152;28;20483;-83
2022/11/10 00:03:31;;;;;;;9.00;2.10;;;11.90;99.90;;;;;;5082691;28;20456;-82
2022/11/10 00:05:58;;;;;;;8.17;1.93;;;11.80;99.90;;;;;;5081915;28;20464;-82
2022/11/10 00:08:25;;;;;;;5.77;1.97;;;11.80;99.90;;;;;;5081775;28;20455;-82
2022/11/10 00:10:57;;;;;;;6.70;2.07;;;11.80;99.90;;;;;;5082277;28;20546;-82
2022/11/10 00:13:28;;;;;;;7.83;1.90;;;11.90;99.90;;;;;;5081941;28;20568;-82
2022/11/10 00:18:41;;;;;;;5.47;1.80;;;11.90;99.90;;;;;;5081729;28;20461;-82
2022/11/10 00:21:10;;;;;;;9.53;2.00;;;11.80;99.90;;;;;;5082565;28;20544;-82
2022/11/10 00:23:38;;;;;;;6.37;2.37;;;11.80;99.90;;;;;;5081541;28;20542;-81
2022/11/10 00:26:11;;;;;;;5.07;1.80;;;11.80;99.90;;;;;;5081891;28;21076;-81
2022/11/10 00:28:39;;;;;;;8.33;1.80;;;11.80;99.90;;;;;;5081015;28;20451;-82
2022/11/10 00:31:07;;;;;;;6.07;2.17;;;11.90;99.90;;;;;;5080914;28;20515;-83
2022/11/10 00:33:35;;;;;;;4.47;1.97;;;11.80;99.90;;;;;;5081745;28;20556;-83
2022/11/10 00:36:02;;;;;;;5.40;1.87;;;11.80;99.90;;;;;;5080913;28;20484;-82
2022/11/10 00:38:28;;;;;;;3.77;1.77;;;11.80;99.90;;;;;;5081322;28;20959;-83
2022/11/10 00:40:55;;;;;;;6.37;2.00;;;11.80;99.90;;;;;;5081059;28;20458;-80
2022/11/10 00:43:22;;;;;;;5.80;2.10;;;11.80;99.90;;;;;;5081356;28;20491;-81
2022/11/10 00:45:50;;;;;;;8.73;1.80;;;11.80;99.90;;;;;;5081222;28;20468;-83
2022/11/10 00:48:17;;;;;;;5.13;1.67;;;11.80;99.90;;;;;;5080314;28;20548;-83
2022/11/10 00:50:44;;;;;;;9.00;2.23;;;11.70;99.90;;;;;;5081922;28;20566;-81
2022/11/10 00:53:11;;;;;;;5.80;2.20;;;11.70;99.90;;;;;;5081692;28;20461;-82
2022/11/10 00:55:38;;;;;;;4.50;1.47;;;11.60;99.90;;;;;;5080761;28;20484;-82
2022/11/10 00:58:05;;;;;;;6.27;2.23;;;11.60;99.90;;;;;;5079601;28;20534;-82
2022/11/10 01:00:32;;;;;;;5.60;1.87;;;11.60;99.90;;;;;;5081727;28;20550;-82
2022/11/10 01:03:01;;;;;;;5.20;2.10;;;11.50;99.90;;;;;;5081493;28;20518;-83
2022/11/10 01:05:28;;;;;;;7.03;2.30;;;11.60;99.90;;;;;;5081765;28;20474;-83
2022/11/10 01:07:55;;;;;;;6.90;2.20;;;11.60;99.90;;;;;;5080691;28;20544;-79
2022/11/10 01:10:21;;;;;;;11.67;3.10;;;11.60;99.90;;;;;;5081305;28;20522;-82
2022/11/10 01:12:48;;;;;;;10.30;3.53;;;11.50;99.90;;;;;;5082003;28;20565;-82
2022/11/10 01:15:15;;;;;;;6.00;1.50;;;11.50;99.90;;;;;;5081036;28;20570;-81
2022/11/10 01:17:42;;;;;;;7.87;2.50;;;11.50;99.90;;;;;;5080053;28;20522;-81
2022/11/10 01:20:11;;;;;;;8.20;2.10;;;11.50;99.90;;;;;;5079939;28;20539;-82
2022/11/10 01:22:39;;;;;;;7.80;2.10;;;11.40;99.90;;;;;;5080093;28;20458;-81
2022/11/10 01:25:06;;;;;;;9.90;2.10;;;11.40;99.90;;;;;;5079512;28;20475;-80
2022/11/10 01:27:33;;;;;;;8.37;1.97;;;11.30;99.90;;;;;;5079161;28;20452;-81
2022/11/10 01:30:00;;;;;;;11.53;2.40;;;11.30;99.90;;;;;;5079540;28;20457;-81
2022/11/10 01:32:27;;;;;;;9.50;2.07;;;11.30;99.90;;;;;;5060008;28;20453;-81
2022/11/10 01:34:54;;;;;;;3.10;1.47;;;11.30;99.90;;;;;;5075083;28;20483;-82
2022/11/10 01:37:22;;;;;;;10.03;2.10;;;11.40;99.90;;;;;;5080590;28;20501;-81
2022/11/10 01:39:49;;;;;;;9.73;1.93;;;11.20;99.90;;;;;;5079666;28;20451;-82
2022/11/10 01:42:22;;;;;;;7.47;2.17;;;11.20;99.90;;;;;;5081748;28;20527;-81
2022/11/10 01:45:22;;;;;;;9.33;2.10;;;11.20;99.90;;;;;;5080176;28;20558;-81
2022/11/10 01:47:50;;;;;;;4.10;1.70;;;11.30;99.90;;;;;;5080142;28;20512;-78
2022/11/10 01:50:18;;;;;;;13.50;2.67;;;11.30;99.90;;;;;;5079308;28;20449;-82
2022/11/10 01:52:50;;;;;;;8.93;2.30;;;11.30;99.90;;;;;;5079982;28;21046;-81
2022/11/10 01:55:17;;;;;;;5.67;1.93;;;11.30;99.90;;;;;;5080137;28;20574;-80
2022/11/10 01:57:45;;;;;;;9.83;2.43;;;11.20;99.90;;;;;;5079802;28;20462;-82
2022/11/10 02:00:13;;;;;;;9.37;2.43;;;11.30;99.90;;;;;;5079573;28;20858;-82
2022/11/10 02:02:44;;;;;;;3.80;1.73;;;11.30;99.90;;;;;;5079863;28;20450;-83
2022/11/10 02:05:11;;;;;;;6.47;1.60;;;11.30;99.90;;;;;;5079168;28;20522;-81
2022/11/10 02:07:38;;;;;;;4.63;1.93;;;11.20;99.90;;;;;;5079993;28;20457;-82
2022/11/10 02:10:15;;;;;;;10.67;2.70;;;11.30;99.90;;;;;;5078358;28;20462;-80
2022/11/10 02:12:42;;;;;;;5.07;1.70;;;11.20;99.90;;;;;;5079629;28;20447;-81
2022/11/10 02:15:12;;;;;;;7.73;1.73;;;11.30;99.90;;;;;;5079776;28;20511;-80
2022/11/10 02:17:40;;;;;;;5.40;1.50;;;11.20;99.90;;;;;;5079190;28;20531;-81
2022/11/10 02:20:09;;;;;;;7.27;1.90;;;11.20;99.90;;;;;;5079376;28;20534;-80
2022/11/10 02:22:38;;;;;;;5.37;1.60;;;11.30;99.90;;;;;;5080363;28;20464;-82
2022/11/10 02:25:06;;;;;;;8.30;2.23;;;11.30;99.90;;;;;;5079665;28;20864;-80
2022/11/10 02:27:33;;;;;;;6.37;1.77;;;11.40;99.90;;;;;;5079473;28;20451;-82
2022/11/10 02:30:00;;;;;;;8.13;1.90;;;11.30;99.90;;;;;;5078237;28;20450;-81
2022/11/10 02:32:27;;;;;;;9.20;1.93;;;11.30;99.90;;;;;;5079917;28;20491;-82
2022/11/10 02:34:54;;;;;;;7.20;1.90;;;11.30;99.90;;;;;;5078412;28;21005;-80
2022/11/10 02:37:21;;;;;;;7.93;2.00;;;11.30;99.90;;;;;;5079676;28;20616;-78
2022/11/10 02:39:49;;;;;;;9.20;2.30;;;11.30;99.90;;;;;;5078284;28;20523;-82
2022/11/10 02:42:16;;;;;;;5.47;1.80;;;11.30;99.90;;;;;;5079669;28;20455;-81
2022/11/10 02:44:43;;;;;;;10.33;1.70;;;11.30;99.90;;;;;;5079369;28;20527;-82
2022/11/10 02:47:09;;;;;;;10.83;2.63;;;11.30;99.90;;;;;;5079780;28;21018;-81
2022/11/10 02:49:36;;;;;;;5.40;2.03;;;11.30;99.90;;;;;;5077968;28;20463;-82
2022/11/10 02:52:03;;;;;;;6.90;2.00;;;11.30;99.90;;;;;;5081871;28;20486;-80
2022/11/10 02:54:30;;;;;;;7.43;2.07;;;11.20;99.90;;;;;;5082932;28;20558;-79
2022/11/10 02:57:01;;;;;;;9.13;1.87;;;11.20;99.90;;;;;;5082443;28;20563;-79
2022/11/10 02:59:28;;;;;;;11.70;2.23;;;11.20;99.90;;;;;;5080410;28;20449;-82
2022/11/10 03:01:55;;;;;;;7.20;1.70;;;11.20;99.90;;;;;;5079489;28;20458;-80
2022/11/10 03:04:22;;;;;;;14.53;2.27;;;11.10;99.90;;;;;;5079965;28;20917;-81
2022/11/10 03:06:48;;;;;;;4.50;1.80;;;11.20;99.90;;;;;;5078773;28;20908;-82
2022/11/10 03:09:15;;;;;;;6.13;1.67;;;11.30;99.90;;;;;;5080400;28;20517;-80
2022/11/10 03:11:42;;;;;;;7.50;2.37;;;11.30;99.90;;;;;;5083189;28;20443;-81
2022/11/10 03:14:10;;;;;;;6.30;2.33;;;11.30;99.90;;;;;;5083235;28;20456;-80
2022/11/10 03:16:37;;;;;;;4.93;1.87;;;11.30;99.90;;;;;;5081972;28;20495;-82
2022/11/10 03:19:04;;;;;;;12.17;2.43;;;11.30;99.90;;;;;;5082086;28;20915;-80
2022/11/10 03:21:31;;;;;;;4.93;2.07;;;11.30;99.90;;;;;;5082443;28;20451;-80
2022/11/10 03:23:57;;;;;;;7.77;2.30;;;11.30;99.90;;;;;;5082601;28;20839;-80
2022/11/10 03:26:24;;;;;;;6.27;1.77;;;11.30;99.90;;;;;;5082598;28;20473;-79
2022/11/10 03:28:51;;;;;;;5.57;2.10;;;11.30;99.90;;;;;;5082161;28;20447;-82
2022/11/10 03:31:19;;;;;;;8.40;1.70;;;11.30;99.90;;;;;;5082023;28;20900;-80
2022/11/10 03:33:49;;;;;;;8.67;2.27;;;11.20;99.90;;;;;;5081175;28;20519;-78
2022/11/10 03:36:16;;;;;;;7.17;2.30;;;11.40;99.90;;;;;;5081622;28;20488;-81
2022/11/10 03:38:42;;;;;;;8.13;2.73;;;11.30;99.90;;;;;;5081346;28;20458;-79
2022/11/10 03:41:09;;;;;;;6.53;2.20;;;11.40;99.90;;;;;;5081795;28;20451;-81
2022/11/10 03:43:36;;;;;;;3.73;1.43;;;11.40;99.90;;;;;;5082446;28;20451;-82
2022/11/10 03:46:03;;;;;;;9.93;2.60;;;11.40;99.90;;;;;;5081730;28;20503;-84
2022/11/10 03:48:31;;;;;;;17.03;1.90;;;11.40;99.90;;;;;;5081354;28;20462;-81
2022/11/10 03:50:58;;;;;;;9.50;2.20;;;11.40;99.90;;;;;;5082060;28;20462;-81
2022/11/10 03:53:25;;;;;;;10.17;2.47;;;11.40;99.90;;;;;;5083496;28;20522;-80
2022/11/10 03:55:51;;;;;;;10.07;2.20;;;11.30;99.90;;;;;;5081824;28;20574;-82
2022/11/10 03:58:18;;;;;;;17.47;3.13;;;11.30;99.90;;;;;;5080758;28;20515;-81
2022/11/10 04:00:45;;;;;;;6.97;2.33;;;11.20;99.90;;;;;;5081911;28;20549;-79
2022/11/10 04:03:12;;;;;;;9.47;2.50;;;11.20;99.90;;;;;;5081709;28;20542;-81
2022/11/10 04:11:08;;;;;;;7.70;2.47;;;11.30;99.90;;;;;;5081825;28;20443;-81
2022/11/10 04:16:20;;;;;;;7.33;1.90;;;11.20;99.90;;;;;;5080974;28;20514;-81
2022/11/10 04:18:46;;;;;;;9.33;2.63;;;11.20;99.90;;;;;;5080894;28;21014;-79
2022/11/10 04:21:15;;;;;;;10.93;2.90;;;11.20;99.90;;;;;;5081322;28;20532;-82
2022/11/10 04:23:42;;;;;;;12.30;2.30;;;11.20;99.90;;;;;;5081282;28;20940;-80
2022/11/10 04:26:29;;;;;;;7.10;2.00;;;11.20;99.90;;;;;;5081142;28;20538;-80
2022/11/10 04:28:58;;;;;;;12.23;2.77;;;11.20;99.90;;;;;;5076884;28;21082;-80
2022/11/10 04:31:28;;;;;;;6.77;2.10;;;11.30;99.90;;;;;;5081223;28;20891;-80
2022/11/10 04:33:55;;;;;;;8.03;3.03;;;11.20;99.90;;;;;;5079154;28;20465;-78
2022/11/10 04:36:25;;;;;;;7.27;1.90;;;11.20;99.90;;;;;;5080957;28;20483;-81
2022/11/10 04:38:54;;;;;;;6.03;1.50;;;11.10;99.90;;;;;;5080851;28;20518;-82
2022/11/10 04:41:21;;;;;;;8.97;2.10;;;11.10;99.90;;;;;;5081316;28;20978;-83
2022/11/10 04:43:47;;;;;;;9.30;2.00;;;11.10;99.90;;;;;;5082546;28;20825;-81
2022/11/10 04:46:22;;;;;;;5.73;2.00;;;11.10;99.90;;;;;;5081044;28;21003;-82
2022/11/10 04:48:50;;;;;;;6.60;2.00;;;11.10;99.90;;;;;;5080507;28;20455;-79
2022/11/10 04:51:17;;;;;;;9.30;1.90;;;11.10;99.90;;;;;;5081514;28;20451;-81
2022/11/10 04:53:45;;;;;;;8.90;2.30;;;11.10;99.90;;;;;;5081402;28;20447;-80
2022/11/10 04:56:14;;;;;;;9.77;2.20;;;11.10;99.90;;;;;;5079926;28;20712;-80
2022/11/10 04:58:41;;;;;;;9.03;2.40;;;11.10;99.90;;;;;;5080408;28;20462;-82
2022/11/10 05:01:11;;;;;;;10.50;2.30;;;11.00;99.90;;;;;;5079804;28;20537;-81
2022/11/10 05:03:37;;;;;;;15.27;2.30;;;11.00;99.90;;;;;;5080605;28;20458;-82
2022/11/10 05:06:04;;;;;;;7.63;2.70;;;11.00;99.90;;;;;;5079541;28;20469;-80
2022/11/10 05:08:31;;;;;;;9.93;2.60;;;11.10;99.90;;;;;;5078714;28;21026;-82
2022/11/10 05:10:59;;;;;;;9.53;2.50;;;11.00;99.90;;;;;;5080132;28;20451;-82
2022/11/10 05:13:26;;;;;;;6.20;2.40;;;11.00;99.90;;;;;;5081137;28;20542;-80
2022/11/10 05:15:53;;;;;;;9.50;1.80;;;11.00;99.90;;;;;;5081592;28;20490;-79
2022/11/10 05:18:20;;;;;;;10.67;2.50;;;11.00;99.90;;;;;;5080795;28;20463;-80
2022/11/10 05:20:47;;;;;;;11.00;2.23;;;11.00;99.90;;;;;;5081310;28;20887;-81
2022/11/10 05:26:01;;;;;;;8.50;2.23;;;11.00;99.90;;;;;;5082386;22;20867;-80
2022/11/10 05:28:30;;;;;;;10.13;2.03;;;10.90;99.90;;;;;;5057168;28;20547;-82
2022/11/10 05:30:59;;;;;;;4.83;1.80;;;11.00;99.90;;;;;;5058489;28;21010;-80
2022/11/10 05:33:26;;;;;;;8.43;2.10;;;11.00;99.90;;;;;;5067274;28;20478;-81
2022/11/10 05:35:59;;;;;;;9.40;2.30;;;10.90;99.90;;;;;;5074508;28;20483;-81
2022/11/10 05:38:26;;;;;;;8.70;2.10;;;10.90;99.90;;;;;;5072588;28;20877;-80
2022/11/10 05:40:53;;;;;;;9.70;1.90;;;10.80;99.90;;;;;;5077070;28;20455;-80
2022/11/10 05:43:21;;;;;;;6.20;2.17;;;10.80;99.90;;;;;;5066376;28;20511;-81
2022/11/10 05:45:48;;;;;;;10.40;2.40;;;10.80;99.90;;;;;;5056226;28;20547;-80
2022/11/10 05:48:15;;;;;;;11.30;2.30;;;10.80;99.90;;;;;;5071296;28;20458;-81
2022/11/10 05:50:42;;;;;;;15.20;2.53;;;10.90;99.90;;;;;;5062501;28;20456;-80
2022/11/10 05:53:09;;;;;;;19.67;2.37;;;11.00;99.90;;;;;;5073987;28;20458;-80
2022/11/10 05:55:36;;;;;;;10.13;2.30;;;11.00;99.90;;;;;;5076045;28;20476;-80
2022/11/10 05:58:02;;;;;;;10.13;2.73;;;11.00;99.90;;;;;;5062425;28;20538;-80
2022/11/10 06:00:32;;;;;;;7.37;2.33;;;11.00;99.90;;;;;;5063364;28;20470;-81
2022/11/10 06:03:01;;;;;;;11.53;2.50;;;11.00;99.90;;;;;;5076689;28;20443;-80
2022/11/10 06:05:28;;;;;;;7.33;2.00;;;10.90;99.90;;;;;;5050584;28;20482;-81
2022/11/10 06:07:55;;;;;;;7.73;2.90;;;11.00;99.90;;;;;;5058752;28;20466;-81
2022/11/10 06:10:22;;;;;;;10.20;2.30;;;10.90;99.90;;;;;;5059751;28;20452;-80
2022/11/10 06:12:49;;;;;;;8.10;2.70;;;11.00;99.90;;;;;;5065571;28;20492;-80
2022/11/10 06:15:16;;;;;;;10.80;2.20;;;11.00;99.90;;;;;;5055119;28;20482;-81
2022/11/10 06:17:45;;;;;;;13.87;2.33;;;11.00;99.90;;;;;;5056393;28;20492;-80
2022/11/10 06:20:13;;;;;;;8.83;2.00;;;10.90;99.90;;;;;;5066423;28;20464;-81
2022/11/10 06:22:40;;;;;;;11.07;2.10;;;10.90;99.90;;;;;;5059447;28;20459;-82
2022/11/10 06:25:08;;;;;;;8.33;2.30;;;10.90;99.90;;;;;;5060180;28;20518;-81
2022/11/10 06:27:35;;;;;;;7.33;2.03;;;10.90;99.90;;;;;;5060614;28;20446;-80
2022/11/10 06:30:03;;;;;;;8.93;2.40;;;10.90;99.90;;;;;;5063671;28;20454;-81
2022/11/10 06:32:29;;;;;;;9.07;2.23;;;10.90;99.90;;;;;;5055960;28;21062;-81
2022/11/10 06:34:58;;;;;;;10.67;2.70;;;10.80;99.90;;;;;;5040065;28;20478;-81
2022/11/10 06:37:24;;;;;;;9.90;2.43;;;10.80;99.90;;;;;;5055279;28;20508;-81
2022/11/10 06:39:51;;;;;;;14.00;2.67;;;10.90;99.90;;;;;;5066861;28;20457;-80
2022/11/10 06:42:18;;;;;;;10.93;1.80;;;10.90;99.90;;;;;;5061479;28;20443;-81
2022/11/10 06:44:45;;;;;;;7.23;2.37;;;10.90;99.90;;;;;;5065598;28;20499;-81
2022/11/10 06:47:12;;;;;;;6.60;2.20;;;10.90;99.90;;;;;;5070698;28;20552;-81
2022/11/10 06:49:38;;;;;;;6.93;2.40;;;10.90;99.90;;;;;;5066979;28;20475;-83
2022/11/10 06:52:07;;;;;;;15.90;2.60;;;10.90;99.90;;;;;;5063011;28;20524;-84
2022/11/10 06:54:34;;;;;;;7.23;1.97;;;10.80;99.90;;;;;;5069781;28;20459;-84
2022/11/10 06:57:00;;;;;;;11.90;2.93;;;10.80;99.90;;;;;;5066253;28;20512;-84
2022/11/10 06:59:27;;;;;;;8.93;2.40;;;10.90;99.90;;;;;;5064432;28;20458;-83
2022/11/10 07:01:54;;;;;;;7.80;2.20;;;10.90;99.90;;;;;;5064615;28;20455;-83
2022/11/10 07:04:21;;;;;;;6.60;2.60;;;10.90;99.90;;;;;;5063866;28;20485;-83
2022/11/10 07:06:48;;;;;;;12.30;3.50;;;11.00;99.90;;;;;;5061067;28;20450;-83
2022/11/10 07:09:16;;;;;;;13.63;4.10;;;10.90;99.90;;;;;;5053478;28;20534;-82
2022/11/10 07:11:43;;;;;;;10.80;2.80;;;11.00;99.90;;;;;;5060382;28;20452;-82
2022/11/10 07:14:10;;;;;;;9.80;2.17;;;10.90;99.90;;;;;;5060219;28;20995;-82
2022/11/10 07:16:37;;;;;;;10.50;2.40;;;11.00;99.90;;;;;;5067043;28;20603;-82
2022/11/10 07:19:04;;;;;;;8.80;2.07;;;10.90;99.90;;;;;;5079104;28;20457;-82
2022/11/10 07:21:31;;;;;;;7.20;2.60;;;11.00;99.90;;;;;;5079816;28;20486;-83
2022/11/10 07:23:58;;;;;;;8.13;2.10;;;11.00;99.90;;;;;;5080082;28;20473;-83
2022/11/10 07:26:26;;;;;;;7.30;2.13;;;11.00;99.90;;;;;;5074458;28;20555;-82
2022/11/10 07:28:52;;;;;;;7.90;2.40;;;11.00;99.90;;;;;;5059033;28;21035;-83
2022/11/10 07:31:20;;;;;;;8.23;2.00;;;11.00;99.90;;;;;;5059396;28;20542;-83
2022/11/10 07:33:46;;;;;;;10.63;2.43;;;11.00;99.90;;;;;;5059781;28;20478;-84
2022/11/10 07:36:13;;;;;;;11.43;2.67;;;10.90;99.90;;;;;;5059778;28;20478;-83
2022/11/10 07:38:40;;;;;;;5.93;2.03;;;11.00;99.90;;;;;;5058312;28;20911;-82
2022/11/10 07:41:07;;;;;;;8.30;2.33;;;11.00;99.90;;;;;;5059173;28;20546;-83
2022/11/10 07:43:35;;;;;;;7.90;1.93;;;11.00;99.90;;;;;;5059818;28;20952;-83
2022/11/10 07:46:02;;;;;;;8.80;2.20;;;11.00;99.90;;;;;;5060129;28;20548;-83
2022/11/10 07:48:29;;;;;;;11.93;2.50;;;11.20;99.90;;;;;;5064156;28;20519;-84
2022/11/10 07:50:56;;;;;;;13.40;2.67;;;11.20;99.90;;;;;;5057091;28;20972;-82
2022/11/10 07:53:23;;;;;;;12.77;2.47;;;11.20;99.90;;;;;;5057536;28;20830;-83
2022/11/10 07:55:50;;;;;;;12.60;3.23;;;11.20;99.90;;;;;;5056957;28;20483;-83
2022/11/10 07:58:18;;;;;;;12.63;2.40;;;11.20;99.90;;;;;;5077476;28;20513;-83
2022/11/10 08:00:48;;;;;;;17.47;2.50;;;11.20;99.90;;;;;;5078524;28;20474;-83
2022/11/10 08:03:17;;;;;;;12.37;2.67;;;11.20;99.90;;;;;;5077611;28;20505;-83
2022/11/10 08:05:45;;;;;;;7.73;2.37;;;11.20;99.90;;;;;;5077545;28;20509;-83
2022/11/10 08:08:12;;;;;;;6.93;2.43;;;11.30;99.90;;;;;;5058460;28;20547;-82
2022/11/10 08:10:41;;;;;;;11.73;2.60;;;11.30;99.90;;;;;;5059273;28;20544;-83
2022/11/10 08:13:09;;;;;;;14.30;2.80;;;11.30;99.90;;;;;;5057837;28;20458;-83
2022/11/10 08:15:36;;;;;;;10.77;2.23;;;11.30;99.90;;;;;;5057960;28;20905;-83
2022/11/10 08:18:07;;;;;;;15.87;3.70;;;11.40;99.90;;;;;;5073538;28;20851;-83
2022/11/10 08:20:34;;;;;;;12.33;3.03;;;11.40;99.90;;;;;;5077584;28;20431;-84
2022/11/10 08:23:03;;;;;;;12.20;2.40;;;11.40;99.90;;;;;;5077976;28;20896;-83
2022/11/10 08:25:32;;;;;;;11.73;2.97;;;11.50;99.90;;;;;;5077398;28;20482;-83
2022/11/10 08:28:00;;;;;;;12.83;2.27;;;11.40;99.90;;;;;;5061607;28;20535;-83
2022/11/10 08:30:28;;;;;;;10.73;2.20;;;11.50;99.90;;;;;;5057300;28;20484;-83
2022/11/10 08:32:56;;;;;;;9.70;2.90;;;11.60;99.90;;;;;;5057462;28;20532;-83
2022/11/10 08:35:25;;;;;;;9.90;2.60;;;11.60;99.90;;;;;;5057149;28;20478;-83
2022/11/10 08:37:52;;;;;;;9.10;2.20;;;11.70;99.90;;;;;;5057214;28;20492;-81
2022/11/10 08:40:20;;;;;;;10.07;2.37;;;11.70;99.90;;;;;;5057906;28;20458;-83
2022/11/10 08:42:47;;;;;;;6.93;2.40;;;11.70;99.90;;;;;;5057569;28;20449;-82
2022/11/10 08:45:14;;;;;;;7.33;2.13;;;11.70;99.90;;;;;;5058268;28;20471;-83
2022/11/10 08:47:43;;;;;;;5.33;1.90;;;11.70;99.90;;;;;;5060637;28;20455;-83
2022/11/10 08:50:10;;;;;;;9.70;2.60;;;11.80;99.90;;;;;;5061569;28;20999;-84
2022/11/10 08:52:38;;;;;;;7.27;2.30;;;11.90;99.90;;;;;;5062300;28;20477;-83
2022/11/10 08:55:06;;;;;;;7.57;2.03;;;11.90;99.90;;;;;;5080101;28;20464;-84
2022/11/10 08:57:33;;;;;;;10.40;2.20;;;12.00;99.90;;;;;;5081429;28;20486;-84
2022/11/10 08:59:59;;;;;;;13.57;2.60;;;12.00;99.90;;;;;;5079933;28;20490;-82
2022/11/10 09:02:26;;;;;;;14.83;2.77;;;12.10;99.90;;;;;;5079442;28;20463;-84
2022/11/10 09:04:53;;;;;;;10.13;3.20;;;12.10;99.90;;;;;;5079686;28;20481;-84
2022/11/10 09:07:20;;;;;;;11.57;3.57;;;12.10;99.90;;;;;;5079632;28;20819;-83
2022/11/10 09:09:48;;;;;;;8.47;2.70;;;12.10;99.90;;;;;;5071518;28;20452;-83
2022/11/10 09:12:15;;;;;;;11.10;2.67;;;12.20;99.90;;;;;;5059011;28;20489;-84
2022/11/10 09:14:42;;;;;;;9.57;2.47;;;12.30;99.90;;;;;;5057903;28;20545;-83
2022/11/10 09:17:08;;;;;;;9.43;2.50;;;12.30;99.90;;;;;;5058585;28;20506;-83
2022/11/10 09:19:35;;;;;;;11.03;2.03;;;12.30;99.90;;;;;;5057508;28;20526;-84
2022/11/10 09:22:02;;;;;;;13.33;2.60;;;12.30;99.90;;;;;;5058690;28;20533;-84
2022/11/10 09:24:29;;;;;;;7.30;2.13;;;12.30;99.90;;;;;;5057979;28;20512;-84
2022/11/10 09:26:58;;;;;;;9.73;2.60;;;12.40;99.90;;;;;;5073190;28;20445;-84
2022/11/10 09:29:25;;;;;;;10.50;2.60;;;12.40;99.90;;;;;;5077661;28;20488;-84
2022/11/10 09:31:51;;;;;;;9.93;3.20;;;12.50;99.90;;;;;;5078105;28;20544;-82
2022/11/10 09:34:18;;;;;;;9.03;2.80;;;12.50;99.90;;;;;;5077306;28;20960;-83
2022/11/10 09:36:45;;;;;;;7.00;1.80;;;12.50;99.90;;;;;;5077847;28;20463;-82
2022/11/10 09:39:12;;;;;;;9.50;2.50;;;12.60;99.90;;;;;;5077628;28;20454;-83
2022/11/10 09:41:40;;;;;;;8.30;2.43;;;12.60;99.90;;;;;;5076784;28;20456;-84
2022/11/10 09:44:13;;;;;;;6.47;1.90;;;12.60;99.90;;;;;;5076207;28;20993;-83
2022/11/10 09:46:43;;;;;;;11.20;2.80;;;12.70;99.90;;;;;;5076696;28;20438;-83
2022/11/10 09:49:20;;;;;;;11.70;2.63;;;12.80;99.90;;;;;;5077439;28;20542;-85
2022/11/10 09:51:48;;;;;;;8.93;2.67;;;12.80;99.90;;;;;;5079932;28;20442;-83
2022/11/10 09:54:28;;;;;;;8.50;2.30;;;12.80;99.90;;;;;;5078625;28;20460;-83
2022/11/10 09:56:59;;;;;;;11.80;2.40;;;12.90;99.90;;;;;;5079284;28;20505;-83
2022/11/10 09:59:29;;;;;;;9.43;2.07;;;12.90;99.90;;;;;;5067632;28;20458;-82
2022/11/10 10:02:02;;;;;;;11.60;2.60;;;13.00;99.90;;;;;;5058595;28;20489;-82
2022/11/10 10:04:45;;;;;;;20.70;2.80;;;13.10;99.90;;;;;;5058590;28;20468;-84
2022/11/10 10:07:16;;;;;;;10.53;3.07;;;13.10;99.90;;;;;;5058623;28;20498;-83
2022/11/10 10:09:50;;;;;;;12.50;2.43;;;13.10;99.90;;;;;;5057449;28;20501;-85
2022/11/10 10:12:34;;;;;;;7.70;2.73;;;13.30;99.90;;;;;;5059380;28;20478;-84
2022/11/10 10:15:17;;;;;;;7.90;2.70;;;13.30;99.90;;;;;;5059913;28;20503;-84
2022/11/10 10:17:54;;;;;;;10.13;2.50;;;13.40;99.90;;;;;;5058219;28;20509;-83
2022/11/10 10:20:31;;;;;;;14.87;2.90;;;13.50;99.90;;;;;;5059582;28;20523;-83
2022/11/10 10:23:07;;;;;;;8.13;2.10;;;13.60;99.90;;;;;;5059401;28;20894;-84
2022/11/10 10:25:34;;;;;;;12.27;2.33;;;13.60;99.90;;;;;;5062465;28;20547;-84
2022/11/10 10:28:06;;;;;;;12.63;2.67;;;13.70;99.90;;;;;;5059167;28;20876;-84
2022/11/10 10:30:34;;;;;;;8.87;2.20;;;13.80;99.90;;;;;;5059024;28;20546;-84
2022/11/10 10:33:13;;;;;;;14.90;3.57;;;13.90;99.90;;;;;;5069870;28;20447;-84
2022/11/10 10:35:40;;;;;;;7.73;1.97;;;14.00;99.90;;;;;;5081456;28;20503;-84
2022/11/10 10:38:16;;;;;;;6.70;2.20;;;14.00;99.90;;;;;;5080343;28;20937;-84
2022/11/10 10:40:44;;;;;;;11.13;3.07;;;14.10;99.90;;;;;;5079384;28;20433;-83
2022/11/10 10:43:11;;;;;;;11.43;2.53;;;14.20;99.90;;;;;;5078992;28;20455;-84
2022/11/10 10:45:41;;;;;;;8.67;1.90;;;14.30;99.90;;;;;;5079037;28;21201;-83
2022/11/10 10:48:24;;;;;;;5.97;1.60;;;14.40;99.90;;;;;;5078724;28;20444;-83
2022/11/10 10:50:51;;;;;;;8.67;2.17;;;14.30;99.90;;;;;;5039335;28;20939;-84
2022/11/10 10:53:20;;;;;;;12.13;3.10;;;14.40;99.90;;;;;;5041035;28;20998;-85
2022/11/10 10:55:52;;;;;;;10.93;3.57;;;14.50;99.90;;;;;;5042859;28;20548;-84
2022/11/10 10:58:25;;;;;;;7.57;1.97;;;14.70;99.90;;;;;;5051051;28;20514;-84
2022/11/10 11:00:59;;;;;;;7.83;2.27;;;15.10;99.90;;;;;;5051375;28;20465;-83
2022/11/10 11:03:36;;;;;;;12.20;3.20;;;15.60;99.90;;;;;;5050038;28;20468;-82
2022/11/10 11:06:08;;;;;;;8.97;2.07;;;16.60;99.90;;;;;;5076110;28;20471;-83
2022/11/10 11:08:35;;;;;;;10.20;2.73;;;17.90;99.90;;;;;;5091661;28;20454;-83
2022/11/10 11:11:10;;;;;;;9.40;1.97;;;19.40;99.90;;;;;;5086514;28;20450;-84
2022/11/10 11:13:37;;;;;;;6.90;2.23;;;20.80;99.90;;;;;;5078665;28;20479;-83
2022/11/10 11:16:07;;;;;;;7.03;2.30;;;21.70;99.90;;;;;;5078532;28;20506;-83
2022/11/10 11:18:38;;;;;;;8.73;2.50;;;22.00;99.90;;;;;;5079273;28;20503;-83
2022/11/10 11:21:11;;;;;;;9.43;2.50;;;21.90;99.90;;;;;;5075583;28;20504;-83
2022/11/10 11:23:57;;;;;;;12.40;2.90;;;22.40;99.90;;;;;;5058865;28;20530;-84
2022/11/10 11:26:34;;;;;;;9.10;2.70;;;22.70;99.90;;;;;;5092638;22;20525;-82
2022/11/10 11:29:16;;;;;;;12.70;2.53;;;22.30;99.90;;;;;;5077491;28;20900;-81
2022/11/10 11:31:54;;;;;;;12.17;3.00;;;22.80;99.90;;;;;;5080440;28;20506;-80
2022/11/10 11:34:27;;;;;;;11.30;2.50;;;22.40;99.90;;;;;;5081534;28;20504;-81
2022/11/10 11:37:04;;;;;;;9.93;2.30;;;22.60;99.90;;;;;;5062485;28;20523;-80
2022/11/10 11:39:43;;;;;;;7.13;2.33;;;22.80;99.90;;;;;;5041503;28;20480;-82
2022/11/10 11:42:20;;;;;;;7.57;2.23;;;22.20;99.90;;;;;;5040693;28;20440;-80
2022/11/10 11:45:03;;;;;;;7.23;2.73;;;21.50;99.90;;;;;;5039814;28;20500;-82
2022/11/10 11:47:44;;;;;;;9.20;2.07;;;21.70;99.90;;;;;;5041418;28;20528;-80
2022/11/10 11:50:23;;;;;;;10.03;1.77;;;22.20;99.90;;;;;;5040478;28;20555;-80
2022/11/10 11:52:58;;;;;;;8.60;2.40;;;21.70;99.90;;;;;;5041319;28;20448;-82
2022/11/10 11:55:40;;;;;;;11.00;2.90;;;22.20;99.90;;;;;;5040140;28;20845;-82
2022/11/10 11:58:24;;;;;;;6.30;2.13;;;22.80;99.90;;;;;;5038819;28;20510;-81
2022/11/10 12:01:04;;;;;;;6.20;2.33;;;22.90;99.90;;;;;;5040283;28;20471;-82
2022/11/10 12:04:20;;;;;;;10.00;3.00;;;22.50;99.90;;;;;;5041558;28;20535;-81
2022/11/10 12:07:05;;;;;;;6.53;1.90;;;21.50;99.90;;;;;;5038235;28;20485;-80
2022/11/10 12:09:42;;;;;;;9.27;1.90;;;21.10;99.90;;;;;;5039298;28;20969;-80
2022/11/10 12:12:24;;;;;;;6.30;2.27;;;20.30;99.90;;;;;;5041374;28;20890;-82
2022/11/10 12:14:58;;;;;;;8.63;2.37;;;19.50;99.90;;;;;;5040156;28;20595;-82
2022/11/10 12:17:33;;;;;;;6.97;2.27;;;19.50;99.90;;;;;;5040021;28;20451;-82
2022/11/10 12:20:16;;;;;;;10.97;2.70;;;19.30;99.90;;;;;;5039807;28;20798;-81
2022/11/10 12:22:49;;;;;;;10.57;2.20;;;18.70;99.90;;;;;;5040291;28;20541;-79
2022/11/10 12:25:24;;;;;;;11.47;2.30;;;18.40;99.90;;;;;;5040887;28;20569;-82
2022/11/10 12:27:56;;;;;;;8.17;2.10;;;18.30;99.90;;;;;;5040962;28;20467;-80
2022/11/10 12:30:23;;;;;;;6.80;1.80;;;18.50;99.90;;;;;;5039304;28;20530;-83
2022/11/10 12:32:55;;;;;;;6.20;2.07;;;18.70;99.90;;;;;;5039677;28;20566;-80
2022/11/10 12:35:27;;;;;;;8.07;2.00;;;18.90;99.90;;;;;;5039599;28;20475;-80
2022/11/10 12:38:00;;;;;;;5.47;1.60;;;18.70;99.90;;;;;;5038203;28;20485;-82
2022/11/10 12:40:32;;;;;;;7.03;2.50;;;18.70;99.90;;;;;;5039932;28;20997;-83
2022/11/10 12:43:01;;;;;;;8.07;2.50;;;18.80;99.90;;;;;;5039524;28;20431;-82
2022/11/10 12:45:32;;;;;;;8.53;2.17;;;18.90;99.90;;;;;;5040842;28;20571;-83
2022/11/10 12:48:00;;;;;;;8.60;2.00;;;18.90;99.90;;;;;;5038573;28;20573;-80
2022/11/10 12:50:39;;;;;;;4.97;1.70;;;18.90;99.90;;;;;;5037424;28;20482;-82
2022/11/10 12:53:14;;;;;;;6.87;1.80;;;18.70;99.90;;;;;;5039746;28;20442;-80
2022/11/10 12:55:44;;;;;;;8.33;2.50;;;18.50;99.90;;;;;;5039237;28;20479;-81
2022/11/10 12:58:13;;;;;;;4.20;1.50;;;18.10;99.90;;;;;;5037781;28;20484;-80
2022/11/10 13:00:43;;;;;;;6.57;1.77;;;17.70;99.90;;;;;;5039035;28;20455;-81
2022/11/10 13:03:24;;;;;;;9.83;2.20;;;17.50;99.90;;;;;;5037670;28;20487;-81
2022/11/10 13:05:57;;;;;;;8.57;2.17;;;17.20;99.90;;;;;;5039074;28;20464;-80
2022/11/10 13:08:31;;;;;;;6.67;1.53;;;17.00;99.90;;;;;;5037621;28;20504;-81